sensor_id;sensor_type;location;lat;lon;timestamp;P1;durP1;ratioP1;P2;durP2;ratioP2
64609;SDS011;51019;46.090;6.350;2023-04-25T00:02:07;15.90;;;4.78;;
64609;SDS011;51019;46.090;6.350;2023-04-25T00:04:34;11.88;;;3.60;;
64609;SDS011;51019;46.090;6.350;2023-04-25T00:07:03;12.52;;;3.60;;
64609;SDS011;51019;46.090;6.350;2023-04-25T00:09:31;11.63;;;3.65;;
64609;SDS011;51019;46.090;6.350;2023-04-25T00:12:02;14.95;;;4.10;;
64609;SDS011;51019;46.090;6.350;2023-04-25T00:14:30;16.33;;;4.05;;
64609;SDS011;51019;46.090;6.350;2023-04-25T00:16:58;12.45;;;3.70;;
64609;SDS011;51019;46.090;6.350;2023-04-25T00:19:26;12.82;;;3.80;;
64609;SDS011;51019;46.090;6.350;2023-04-25T00:21:55;13.20;;;3.50;;
64609;SDS011;51019;46.090;6.350;2023-04-25T00:24:23;14.32;;;3.65;;
64609;SDS011;51019;46.090;6.350;2023-04-25T00:26:51;13.60;;;3.80;;
64609;SDS011;51019;46.090;6.350;2023-04-25T00:29:21;13.40;;;4.13;;
64609;SDS011;51019;46.090;6.350;2023-04-25T00:31:49;11.95;;;4.10;;
64609;SDS011;51019;46.090;6.350;2023-04-25T00:34:18;14.48;;;3.88;;
64609;SDS011;51019;46.090;6.350;2023-04-25T00:36:46;12.57;;;3.80;;
64609;SDS011;51019;46.090;6.350;2023-04-25T00:39:14;14.52;;;3.65;;
64609;SDS011;51019;46.090;6.350;2023-04-25T00:41:43;11.63;;;3.38;;
64609;SDS011;51019;46.090;6.350;2023-04-25T00:44:12;15.35;;;3.85;;
64609;SDS011;51019;46.090;6.350;2023-04-25T00:46:44;12.50;;;3.17;;
64609;SDS011;51019;46.090;6.350;2023-04-25T00:49:15;12.55;;;3.83;;
64609;SDS011;51019;46.090;6.350;2023-04-25T00:51:43;12.07;;;3.97;;
64609;SDS011;51019;46.090;6.350;2023-04-25T00:54:11;13.63;;;3.88;;
64609;SDS011;51019;46.090;6.350;2023-04-25T00:56:39;13.77;;;4.28;;
64609;SDS011;51019;46.090;6.350;2023-04-25T00:59:09;14.63;;;4.22;;
64609;SDS011;51019;46.090;6.350;2023-04-25T01:01:38;12.55;;;3.72;;
64609;SDS011;51019;46.090;6.350;2023-04-25T01:04:08;10.32;;;3.30;;
64609;SDS011;51019;46.090;6.350;2023-04-25T01:06:36;13.25;;;3.65;;
64609;SDS011;51019;46.090;6.350;2023-04-25T01:09:04;11.70;;;3.72;;
64609;SDS011;51019;46.090;6.350;2023-04-25T01:11:32;12.65;;;4.13;;
64609;SDS011;51019;46.090;6.350;2023-04-25T01:14:00;15.95;;;4.10;;
64609;SDS011;51019;46.090;6.350;2023-04-25T01:16:29;13.07;;;3.90;;
64609;SDS011;51019;46.090;6.350;2023-04-25T01:18:58;12.50;;;3.60;;
64609;SDS011;51019;46.090;6.350;2023-04-25T01:21:28;12.55;;;4.00;;
64609;SDS011;51019;46.090;6.350;2023-04-25T01:23:56;14.35;;;3.60;;
64609;SDS011;51019;46.090;6.350;2023-04-25T01:26:24;11.35;;;3.65;;
64609;SDS011;51019;46.090;6.350;2023-04-25T01:28:52;11.27;;;3.50;;
64609;SDS011;51019;46.090;6.350;2023-04-25T01:31:21;12.10;;;3.30;;
64609;SDS011;51019;46.090;6.350;2023-04-25T01:33:53;11.43;;;3.25;;
64609;SDS011;51019;46.090;6.350;2023-04-25T01:36:21;10.52;;;3.10;;
64609;SDS011;51019;46.090;6.350;2023-04-25T01:38:50;14.18;;;3.60;;
64609;SDS011;51019;46.090;6.350;2023-04-25T01:41:19;10.65;;;3.60;;
64609;SDS011;51019;46.090;6.350;2023-04-25T01:43:48;15.05;;;3.38;;
64609;SDS011;51019;46.090;6.350;2023-04-25T01:46:16;12.98;;;3.60;;
64609;SDS011;51019;46.090;6.350;2023-04-25T01:48:44;10.98;;;3.22;;
64609;SDS011;51019;46.090;6.350;2023-04-25T01:51:13;16.27;;;4.20;;
64609;SDS011;51019;46.090;6.350;2023-04-25T01:53:41;13.30;;;2.88;;
64609;SDS011;51019;46.090;6.350;2023-04-25T01:56:11;12.98;;;3.60;;
64609;SDS011;51019;46.090;6.350;2023-04-25T01:58:39;12.50;;;3.72;;
64609;SDS011;51019;46.090;6.350;2023-04-25T02:01:07;11.82;;;4.15;;
64609;SDS011;51019;46.090;6.350;2023-04-25T02:03:36;14.82;;;3.92;;
64609;SDS011;51019;46.090;6.350;2023-04-25T02:06:05;14.13;;;4.22;;
64609;SDS011;51019;46.090;6.350;2023-04-25T02:08:34;13.82;;;3.90;;
64609;SDS011;51019;46.090;6.350;2023-04-25T02:11:05;12.30;;;3.95;;
64609;SDS011;51019;46.090;6.350;2023-04-25T02:13:34;11.52;;;3.83;;
64609;SDS011;51019;46.090;6.350;2023-04-25T02:16:02;14.02;;;3.80;;
64609;SDS011;51019;46.090;6.350;2023-04-25T02:18:30;13.10;;;4.35;;
64609;SDS011;51019;46.090;6.350;2023-04-25T02:20:59;12.25;;;3.67;;
64609;SDS011;51019;46.090;6.350;2023-04-25T02:23:28;11.52;;;3.35;;
64609;SDS011;51019;46.090;6.350;2023-04-25T02:25:56;11.02;;;3.40;;
64609;SDS011;51019;46.090;6.350;2023-04-25T02:28:25;10.48;;;3.08;;
64609;SDS011;51019;46.090;6.350;2023-04-25T02:30:54;12.07;;;3.50;;
64609;SDS011;51019;46.090;6.350;2023-04-25T02:33:22;11.57;;;3.40;;
64609;SDS011;51019;46.090;6.350;2023-04-25T02:35:49;14.30;;;4.05;;
64609;SDS011;51019;46.090;6.350;2023-04-25T02:38:19;13.73;;;4.07;;
64609;SDS011;51019;46.090;6.350;2023-04-25T02:40:47;12.90;;;3.92;;
64609;SDS011;51019;46.090;6.350;2023-04-25T02:43:14;14.07;;;3.95;;
64609;SDS011;51019;46.090;6.350;2023-04-25T02:45:43;12.70;;;3.75;;
64609;SDS011;51019;46.090;6.350;2023-04-25T02:48:12;12.55;;;3.97;;
64609;SDS011;51019;46.090;6.350;2023-04-25T02:50:39;17.85;;;4.38;;
64609;SDS011;51019;46.090;6.350;2023-04-25T02:53:07;11.30;;;3.70;;
64609;SDS011;51019;46.090;6.350;2023-04-25T02:55:36;15.10;;;4.47;;
64609;SDS011;51019;46.090;6.350;2023-04-25T02:58:05;14.43;;;4.15;;
64609;SDS011;51019;46.090;6.350;2023-04-25T03:00:32;15.35;;;4.90;;
64609;SDS011;51019;46.090;6.350;2023-04-25T03:03:00;12.32;;;3.90;;
64609;SDS011;51019;46.090;6.350;2023-04-25T03:05:29;12.20;;;3.70;;
64609;SDS011;51019;46.090;6.350;2023-04-25T03:07:58;12.95;;;3.67;;
64609;SDS011;51019;46.090;6.350;2023-04-25T03:10:26;11.77;;;3.80;;
64609;SDS011;51019;46.090;6.350;2023-04-25T03:12:56;14.43;;;3.72;;
64609;SDS011;51019;46.090;6.350;2023-04-25T03:15:23;12.13;;;3.90;;
64609;SDS011;51019;46.090;6.350;2023-04-25T03:17:51;10.75;;;3.75;;
64609;SDS011;51019;46.090;6.350;2023-04-25T03:20:19;15.80;;;4.90;;
64609;SDS011;51019;46.090;6.350;2023-04-25T03:22:48;14.82;;;3.88;;
64609;SDS011;51019;46.090;6.350;2023-04-25T03:25:16;12.80;;;4.10;;
64609;SDS011;51019;46.090;6.350;2023-04-25T03:27:45;12.07;;;4.18;;
64609;SDS011;51019;46.090;6.350;2023-04-25T03:30:12;12.85;;;4.40;;
64609;SDS011;51019;46.090;6.350;2023-04-25T03:32:40;44.72;;;10.73;;
64609;SDS011;51019;46.090;6.350;2023-04-25T03:35:08;72.55;;;16.17;;
64609;SDS011;51019;46.090;6.350;2023-04-25T03:37:36;15.25;;;4.95;;
64609;SDS011;51019;46.090;6.350;2023-04-25T03:40:08;14.00;;;4.45;;
64609;SDS011;51019;46.090;6.350;2023-04-25T03:42:40;11.60;;;3.60;;
64609;SDS011;51019;46.090;6.350;2023-04-25T03:45:09;11.65;;;3.70;;
64609;SDS011;51019;46.090;6.350;2023-04-25T03:47:37;14.32;;;4.50;;
64609;SDS011;51019;46.090;6.350;2023-04-25T03:50:05;15.77;;;4.22;;
64609;SDS011;51019;46.090;6.350;2023-04-25T03:52:33;14.10;;;4.38;;
64609;SDS011;51019;46.090;6.350;2023-04-25T03:55:01;15.27;;;4.57;;
64609;SDS011;51019;46.090;6.350;2023-04-25T03:57:31;13.35;;;4.32;;
64609;SDS011;51019;46.090;6.350;2023-04-25T03:59:59;15.07;;;4.47;;
64609;SDS011;51019;46.090;6.350;2023-04-25T04:02:28;12.10;;;4.05;;
64609;SDS011;51019;46.090;6.350;2023-04-25T04:04:56;15.20;;;4.20;;
64609;SDS011;51019;46.090;6.350;2023-04-25T04:07:25;20.63;;;4.53;;
64609;SDS011;51019;46.090;6.350;2023-04-25T04:09:53;11.88;;;4.20;;
64609;SDS011;51019;46.090;6.350;2023-04-25T04:12:21;13.63;;;3.92;;
64609;SDS011;51019;46.090;6.350;2023-04-25T04:14:50;11.07;;;3.58;;
64609;SDS011;51019;46.090;6.350;2023-04-25T04:17:17;16.77;;;4.15;;
64609;SDS011;51019;46.090;6.350;2023-04-25T04:19:45;14.05;;;4.28;;
64609;SDS011;51019;46.090;6.350;2023-04-25T04:22:13;14.98;;;4.40;;
64609;SDS011;51019;46.090;6.350;2023-04-25T04:24:41;16.48;;;4.47;;
64609;SDS011;51019;46.090;6.350;2023-04-25T04:27:11;13.88;;;4.90;;
64609;SDS011;51019;46.090;6.350;2023-04-25T04:29:40;11.90;;;4.43;;
64609;SDS011;51019;46.090;6.350;2023-04-25T04:32:09;14.30;;;3.88;;
64609;SDS011;51019;46.090;6.350;2023-04-25T04:34:37;12.85;;;3.72;;
64609;SDS011;51019;46.090;6.350;2023-04-25T04:37:06;11.88;;;4.10;;
64609;SDS011;51019;46.090;6.350;2023-04-25T04:39:35;10.07;;;3.60;;
64609;SDS011;51019;46.090;6.350;2023-04-25T04:42:02;13.80;;;3.50;;
64609;SDS011;51019;46.090;6.350;2023-04-25T04:44:30;13.02;;;3.92;;
64609;SDS011;51019;46.090;6.350;2023-04-25T04:47:00;13.90;;;3.83;;
64609;SDS011;51019;46.090;6.350;2023-04-25T04:49:31;12.20;;;3.58;;
64609;SDS011;51019;46.090;6.350;2023-04-25T04:51:58;14.93;;;3.97;;
64609;SDS011;51019;46.090;6.350;2023-04-25T04:54:26;12.68;;;3.90;;
64609;SDS011;51019;46.090;6.350;2023-04-25T04:56:55;13.98;;;4.15;;
64609;SDS011;51019;46.090;6.350;2023-04-25T04:59:22;11.35;;;3.28;;
64609;SDS011;51019;46.090;6.350;2023-04-25T05:01:52;13.00;;;4.20;;
64609;SDS011;51019;46.090;6.350;2023-04-25T05:04:20;10.95;;;4.05;;
64609;SDS011;51019;46.090;6.350;2023-04-25T05:06:49;12.73;;;4.30;;
64609;SDS011;51019;46.090;6.350;2023-04-25T05:09:18;13.80;;;4.47;;
64609;SDS011;51019;46.090;6.350;2023-04-25T05:11:51;13.60;;;4.80;;
64609;SDS011;51019;46.090;6.350;2023-04-25T05:14:18;14.75;;;4.72;;
64609;SDS011;51019;46.090;6.350;2023-04-25T05:16:46;15.05;;;4.28;;
64609;SDS011;51019;46.090;6.350;2023-04-25T05:19:15;13.77;;;3.90;;
64609;SDS011;51019;46.090;6.350;2023-04-25T05:21:46;15.20;;;4.00;;
64609;SDS011;51019;46.090;6.350;2023-04-25T05:24:16;14.27;;;4.22;;
64609;SDS011;51019;46.090;6.350;2023-04-25T05:26:43;12.48;;;4.10;;
64609;SDS011;51019;46.090;6.350;2023-04-25T05:29:12;16.13;;;4.20;;
64609;SDS011;51019;46.090;6.350;2023-04-25T05:31:39;12.88;;;3.50;;
64609;SDS011;51019;46.090;6.350;2023-04-25T05:34:08;13.85;;;4.10;;
64609;SDS011;51019;46.090;6.350;2023-04-25T05:36:36;13.23;;;5.85;;
64609;SDS011;51019;46.090;6.350;2023-04-25T05:39:03;13.73;;;4.05;;
64609;SDS011;51019;46.090;6.350;2023-04-25T05:41:33;12.98;;;4.70;;
64609;SDS011;51019;46.090;6.350;2023-04-25T05:44:00;14.45;;;5.25;;
64609;SDS011;51019;46.090;6.350;2023-04-25T05:46:29;15.18;;;4.93;;
64609;SDS011;51019;46.090;6.350;2023-04-25T05:48:57;16.58;;;5.80;;
64609;SDS011;51019;46.090;6.350;2023-04-25T05:51:27;18.15;;;6.13;;
64609;SDS011;51019;46.090;6.350;2023-04-25T05:53:57;17.65;;;6.07;;
64609;SDS011;51019;46.090;6.350;2023-04-25T05:56:24;17.95;;;5.60;;
64609;SDS011;51019;46.090;6.350;2023-04-25T05:58:54;16.35;;;5.43;;
64609;SDS011;51019;46.090;6.350;2023-04-25T06:01:22;14.98;;;5.28;;
64609;SDS011;51019;46.090;6.350;2023-04-25T06:03:50;14.60;;;5.22;;
64609;SDS011;51019;46.090;6.350;2023-04-25T06:06:18;13.02;;;4.65;;
64609;SDS011;51019;46.090;6.350;2023-04-25T06:08:46;17.63;;;5.95;;
64609;SDS011;51019;46.090;6.350;2023-04-25T06:11:14;13.90;;;5.57;;
64609;SDS011;51019;46.090;6.350;2023-04-25T06:13:42;14.45;;;4.88;;
64609;SDS011;51019;46.090;6.350;2023-04-25T06:16:11;14.05;;;5.32;;
64609;SDS011;51019;46.090;6.350;2023-04-25T06:18:40;19.95;;;5.35;;
64609;SDS011;51019;46.090;6.350;2023-04-25T06:21:08;14.15;;;4.65;;
64609;SDS011;51019;46.090;6.350;2023-04-25T06:23:36;15.15;;;4.78;;
64609;SDS011;51019;46.090;6.350;2023-04-25T06:26:04;16.27;;;5.15;;
64609;SDS011;51019;46.090;6.350;2023-04-25T06:28:31;15.52;;;5.07;;
64609;SDS011;51019;46.090;6.350;2023-04-25T06:30:59;16.88;;;4.40;;
64609;SDS011;51019;46.090;6.350;2023-04-25T06:33:29;13.23;;;5.10;;
64609;SDS011;51019;46.090;6.350;2023-04-25T06:35:57;13.93;;;4.57;;
64609;SDS011;51019;46.090;6.350;2023-04-25T06:38:25;15.20;;;4.47;;
64609;SDS011;51019;46.090;6.350;2023-04-25T06:40:53;14.80;;;4.95;;
64609;SDS011;51019;46.090;6.350;2023-04-25T06:43:20;13.55;;;4.38;;
64609;SDS011;51019;46.090;6.350;2023-04-25T06:45:49;12.80;;;4.30;;
64609;SDS011;51019;46.090;6.350;2023-04-25T06:48:20;12.30;;;4.35;;
64609;SDS011;51019;46.090;6.350;2023-04-25T06:50:50;10.73;;;3.47;;
64609;SDS011;51019;46.090;6.350;2023-04-25T06:53:18;12.50;;;3.28;;
64609;SDS011;51019;46.090;6.350;2023-04-25T06:55:46;12.18;;;3.50;;
64609;SDS011;51019;46.090;6.350;2023-04-25T06:58:13;12.65;;;3.58;;
64609;SDS011;51019;46.090;6.350;2023-04-25T07:00:41;10.65;;;3.20;;
64609;SDS011;51019;46.090;6.350;2023-04-25T07:03:09;13.63;;;3.42;;
64609;SDS011;51019;46.090;6.350;2023-04-25T07:05:37;11.82;;;3.35;;
64609;SDS011;51019;46.090;6.350;2023-04-25T07:08:07;11.60;;;3.45;;
64609;SDS011;51019;46.090;6.350;2023-04-25T07:10:35;13.15;;;3.90;;
64609;SDS011;51019;46.090;6.350;2023-04-25T07:13:03;15.45;;;4.13;;
64609;SDS011;51019;46.090;6.350;2023-04-25T07:15:32;13.55;;;4.40;;
64609;SDS011;51019;46.090;6.350;2023-04-25T07:17:59;14.70;;;4.30;;
64609;SDS011;51019;46.090;6.350;2023-04-25T07:20:28;20.27;;;5.65;;
64609;SDS011;51019;46.090;6.350;2023-04-25T07:22:56;14.50;;;4.50;;
64609;SDS011;51019;46.090;6.350;2023-04-25T07:25:26;11.30;;;3.92;;
64609;SDS011;51019;46.090;6.350;2023-04-25T07:27:54;13.32;;;4.53;;
64609;SDS011;51019;46.090;6.350;2023-04-25T07:30:21;13.68;;;4.38;;
64609;SDS011;51019;46.090;6.350;2023-04-25T07:32:49;15.35;;;5.07;;
64609;SDS011;51019;46.090;6.350;2023-04-25T07:35:18;12.52;;;4.82;;
64609;SDS011;51019;46.090;6.350;2023-04-25T07:37:45;12.80;;;3.72;;
64609;SDS011;51019;46.090;6.350;2023-04-25T07:40:13;16.58;;;4.20;;
64609;SDS011;51019;46.090;6.350;2023-04-25T07:42:44;13.20;;;4.63;;
64609;SDS011;51019;46.090;6.350;2023-04-25T07:45:11;14.40;;;4.05;;
64609;SDS011;51019;46.090;6.350;2023-04-25T07:47:39;15.98;;;4.28;;
64609;SDS011;51019;46.090;6.350;2023-04-25T07:50:07;14.13;;;4.22;;
64609;SDS011;51019;46.090;6.350;2023-04-25T07:52:36;18.08;;;7.30;;
64609;SDS011;51019;46.090;6.350;2023-04-25T07:55:03;15.38;;;5.40;;
64609;SDS011;51019;46.090;6.350;2023-04-25T07:57:31;11.55;;;4.05;;
64609;SDS011;51019;46.090;6.350;2023-04-25T08:00:01;16.20;;;3.95;;
64609;SDS011;51019;46.090;6.350;2023-04-25T08:02:34;17.30;;;4.47;;
64609;SDS011;51019;46.090;6.350;2023-04-25T08:05:02;13.30;;;4.20;;
64609;SDS011;51019;46.090;6.350;2023-04-25T08:07:33;16.90;;;3.85;;
64609;SDS011;51019;46.090;6.350;2023-04-25T08:10:00;11.82;;;3.63;;
64609;SDS011;51019;46.090;6.350;2023-04-25T08:12:27;20.23;;;6.82;;
64609;SDS011;51019;46.090;6.350;2023-04-25T08:14:57;20.55;;;7.70;;
64609;SDS011;51019;46.090;6.350;2023-04-25T08:17:27;16.60;;;4.70;;
64609;SDS011;51019;46.090;6.350;2023-04-25T08:19:54;14.98;;;4.07;;
64609;SDS011;51019;46.090;6.350;2023-04-25T08:22:22;15.77;;;4.60;;
64609;SDS011;51019;46.090;6.350;2023-04-25T08:24:49;11.80;;;3.17;;
64609;SDS011;51019;46.090;6.350;2023-04-25T08:27:17;18.35;;;4.43;;
64609;SDS011;51019;46.090;6.350;2023-04-25T08:29:46;12.40;;;3.80;;
64609;SDS011;51019;46.090;6.350;2023-04-25T08:32:13;14.35;;;3.85;;
64609;SDS011;51019;46.090;6.350;2023-04-25T08:34:44;11.55;;;3.20;;
64609;SDS011;51019;46.090;6.350;2023-04-25T08:37:14;13.75;;;3.58;;
64609;SDS011;51019;46.090;6.350;2023-04-25T08:39:44;11.52;;;3.60;;
64609;SDS011;51019;46.090;6.350;2023-04-25T08:42:14;12.15;;;3.45;;
64609;SDS011;51019;46.090;6.350;2023-04-25T08:44:42;12.95;;;3.17;;
64609;SDS011;51019;46.090;6.350;2023-04-25T08:47:11;11.35;;;3.88;;
64609;SDS011;51019;46.090;6.350;2023-04-25T08:49:39;11.73;;;3.25;;
64609;SDS011;51019;46.090;6.350;2023-04-25T08:52:14;12.90;;;3.38;;
64609;SDS011;51019;46.090;6.350;2023-04-25T08:54:49;13.93;;;3.45;;
64609;SDS011;51019;46.090;6.350;2023-04-25T08:57:18;12.93;;;3.50;;
64609;SDS011;51019;46.090;6.350;2023-04-25T08:59:45;11.05;;;2.70;;
64609;SDS011;51019;46.090;6.350;2023-04-25T09:02:14;12.20;;;3.33;;
64609;SDS011;51019;46.090;6.350;2023-04-25T09:04:43;12.43;;;3.40;;
64609;SDS011;51019;46.090;6.350;2023-04-25T09:07:11;14.27;;;3.60;;
64609;SDS011;51019;46.090;6.350;2023-04-25T09:09:42;11.60;;;3.58;;
64609;SDS011;51019;46.090;6.350;2023-04-25T09:12:09;13.35;;;3.85;;
64609;SDS011;51019;46.090;6.350;2023-04-25T09:14:37;19.52;;;4.03;;
64609;SDS011;51019;46.090;6.350;2023-04-25T09:17:07;8.80;;;3.20;;
64609;SDS011;51019;46.090;6.350;2023-04-25T09:19:35;13.07;;;3.17;;
64609;SDS011;51019;46.090;6.350;2023-04-25T09:22:05;12.95;;;3.70;;
64609;SDS011;51019;46.090;6.350;2023-04-25T09:24:34;15.63;;;3.55;;
64609;SDS011;51019;46.090;6.350;2023-04-25T09:27:05;11.68;;;3.30;;
64609;SDS011;51019;46.090;6.350;2023-04-25T09:29:34;14.45;;;3.47;;
64609;SDS011;51019;46.090;6.350;2023-04-25T09:32:16;12.27;;;3.60;;
64609;SDS011;51019;46.090;6.350;2023-04-25T09:34:46;13.27;;;4.00;;
64609;SDS011;51019;46.090;6.350;2023-04-25T09:37:18;12.75;;;3.70;;
64609;SDS011;51019;46.090;6.350;2023-04-25T09:39:46;12.68;;;3.28;;
64609;SDS011;51019;46.090;6.350;2023-04-25T09:42:16;11.98;;;3.03;;
64609;SDS011;51019;46.090;6.350;2023-04-25T09:44:46;12.82;;;3.30;;
64609;SDS011;51019;46.090;6.350;2023-04-25T09:47:13;12.25;;;3.40;;
64609;SDS011;51019;46.090;6.350;2023-04-25T09:49:43;10.90;;;3.35;;
64609;SDS011;51019;46.090;6.350;2023-04-25T09:52:13;13.63;;;3.78;;
64609;SDS011;51019;46.090;6.350;2023-04-25T09:54:44;11.20;;;2.88;;
64609;SDS011;51019;46.090;6.350;2023-04-25T09:57:13;8.10;;;2.50;;
64609;SDS011;51019;46.090;6.350;2023-04-25T09:59:44;10.27;;;2.90;;
64609;SDS011;51019;46.090;6.350;2023-04-25T10:02:15;9.55;;;2.60;;
64609;SDS011;51019;46.090;6.350;2023-04-25T10:04:44;12.82;;;2.90;;
64609;SDS011;51019;46.090;6.350;2023-04-25T10:07:16;11.00;;;2.63;;
64609;SDS011;51019;46.090;6.350;2023-04-25T10:09:47;9.85;;;2.80;;
64609;SDS011;51019;46.090;6.350;2023-04-25T10:12:18;9.68;;;2.80;;
64609;SDS011;51019;46.090;6.350;2023-04-25T10:14:46;9.88;;;2.85;;
64609;SDS011;51019;46.090;6.350;2023-04-25T10:17:15;13.65;;;3.38;;
64609;SDS011;51019;46.090;6.350;2023-04-25T10:19:44;11.32;;;2.88;;
64609;SDS011;51019;46.090;6.350;2023-04-25T10:22:13;13.60;;;3.45;;
64609;SDS011;51019;46.090;6.350;2023-04-25T10:24:46;13.38;;;3.20;;
64609;SDS011;51019;46.090;6.350;2023-04-25T10:27:20;12.90;;;3.30;;
64609;SDS011;51019;46.090;6.350;2023-04-25T10:29:51;11.07;;;2.50;;
64609;SDS011;51019;46.090;6.350;2023-04-25T10:32:31;11.45;;;2.67;;
64609;SDS011;51019;46.090;6.350;2023-04-25T10:35:09;9.73;;;2.38;;
64609;SDS011;51019;46.090;6.350;2023-04-25T10:37:38;11.40;;;2.67;;
64609;SDS011;51019;46.090;6.350;2023-04-25T10:40:24;7.45;;;2.10;;
64609;SDS011;51019;46.090;6.350;2023-04-25T10:42:55;8.93;;;2.00;;
64609;SDS011;51019;46.090;6.350;2023-04-25T10:45:22;11.00;;;2.95;;
64609;SDS011;51019;46.090;6.350;2023-04-25T10:47:50;6.97;;;2.22;;
64609;SDS011;51019;46.090;6.350;2023-04-25T10:50:17;6.00;;;1.75;;
64609;SDS011;51019;46.090;6.350;2023-04-25T10:52:45;7.70;;;2.03;;
64609;SDS011;51019;46.090;6.350;2023-04-25T10:55:12;7.07;;;1.90;;
64609;SDS011;51019;46.090;6.350;2023-04-25T10:57:41;8.68;;;2.13;;
64609;SDS011;51019;46.090;6.350;2023-04-25T11:00:14;8.25;;;2.17;;
64609;SDS011;51019;46.090;6.350;2023-04-25T11:02:44;11.53;;;2.33;;
64609;SDS011;51019;46.090;6.350;2023-04-25T11:05:18;7.47;;;1.83;;
64609;SDS011;51019;46.090;6.350;2023-04-25T11:07:50;8.15;;;2.05;;
64609;SDS011;51019;46.090;6.350;2023-04-25T11:10:19;9.13;;;2.08;;
64609;SDS011;51019;46.090;6.350;2023-04-25T11:12:47;8.95;;;2.40;;
64609;SDS011;51019;46.090;6.350;2023-04-25T11:15:17;6.45;;;2.00;;
64609;SDS011;51019;46.090;6.350;2023-04-25T11:17:44;7.78;;;2.00;;
64609;SDS011;51019;46.090;6.350;2023-04-25T11:20:13;11.43;;;2.33;;
64609;SDS011;51019;46.090;6.350;2023-04-25T11:22:41;10.70;;;2.35;;
64609;SDS011;51019;46.090;6.350;2023-04-25T11:25:11;9.13;;;2.00;;
64609;SDS011;51019;46.090;6.350;2023-04-25T11:27:49;9.10;;;2.00;;
64609;SDS011;51019;46.090;6.350;2023-04-25T11:30:20;7.88;;;2.03;;
64609;SDS011;51019;46.090;6.350;2023-04-25T11:32:49;6.18;;;2.90;;
64609;SDS011;51019;46.090;6.350;2023-04-25T11:35:17;6.72;;;1.88;;
64609;SDS011;51019;46.090;6.350;2023-04-25T11:37:45;6.65;;;1.80;;
64609;SDS011;51019;46.090;6.350;2023-04-25T11:40:13;7.15;;;1.80;;
64609;SDS011;51019;46.090;6.350;2023-04-25T11:42:43;6.15;;;1.80;;
64609;SDS011;51019;46.090;6.350;2023-04-25T11:45:13;6.55;;;1.90;;
64609;SDS011;51019;46.090;6.350;2023-04-25T11:47:45;11.57;;;2.25;;
64609;SDS011;51019;46.090;6.350;2023-04-25T11:50:13;7.80;;;2.00;;
64609;SDS011;51019;46.090;6.350;2023-04-25T11:52:42;8.63;;;1.80;;
64609;SDS011;51019;46.090;6.350;2023-04-25T11:55:12;10.40;;;1.55;;
64609;SDS011;51019;46.090;6.350;2023-04-25T11:57:45;4.57;;;1.50;;
64609;SDS011;51019;46.090;6.350;2023-04-25T12:00:16;9.48;;;1.98;;
64609;SDS011;51019;46.090;6.350;2023-04-25T12:02:50;7.88;;;1.80;;
64609;SDS011;51019;46.090;6.350;2023-04-25T12:05:19;8.48;;;1.63;;
64609;SDS011;51019;46.090;6.350;2023-04-25T12:07:51;9.98;;;2.25;;
64609;SDS011;51019;46.090;6.350;2023-04-25T12:10:18;12.90;;;2.50;;
64609;SDS011;51019;46.090;6.350;2023-04-25T12:12:47;5.38;;;1.63;;
64609;SDS011;51019;46.090;6.350;2023-04-25T12:15:15;6.93;;;1.90;;
64609;SDS011;51019;46.090;6.350;2023-04-25T12:17:45;6.13;;;1.67;;
64609;SDS011;51019;46.090;6.350;2023-04-25T12:20:15;7.85;;;2.20;;
64609;SDS011;51019;46.090;6.350;2023-04-25T12:22:45;9.90;;;2.58;;
64609;SDS011;51019;46.090;6.350;2023-04-25T12:28:13;7.97;;;1.88;;
64609;SDS011;51019;46.090;6.350;2023-04-25T12:30:57;8.82;;;1.80;;
64609;SDS011;51019;46.090;6.350;2023-04-25T12:33:26;6.28;;;1.85;;
64609;SDS011;51019;46.090;6.350;2023-04-25T12:35:56;6.32;;;1.83;;
64609;SDS011;51019;46.090;6.350;2023-04-25T12:38:24;8.13;;;1.90;;
64609;SDS011;51019;46.090;6.350;2023-04-25T12:40:52;9.43;;;1.88;;
64609;SDS011;51019;46.090;6.350;2023-04-25T12:43:20;6.50;;;1.77;;
64609;SDS011;51019;46.090;6.350;2023-04-25T12:45:48;5.60;;;1.73;;
64609;SDS011;51019;46.090;6.350;2023-04-25T12:48:16;8.02;;;2.22;;
64609;SDS011;51019;46.090;6.350;2023-04-25T12:50:45;9.77;;;2.20;;
64609;SDS011;51019;46.090;6.350;2023-04-25T12:53:18;10.02;;;1.90;;
64609;SDS011;51019;46.090;6.350;2023-04-25T12:55:47;9.25;;;2.20;;
64609;SDS011;51019;46.090;6.350;2023-04-25T12:58:16;10.48;;;2.00;;
64609;SDS011;51019;46.090;6.350;2023-04-25T13:00:45;7.30;;;1.90;;
64609;SDS011;51019;46.090;6.350;2023-04-25T13:03:14;5.35;;;1.85;;
64609;SDS011;51019;46.090;6.350;2023-04-25T13:05:42;8.95;;;1.95;;
64609;SDS011;51019;46.090;6.350;2023-04-25T13:08:09;5.70;;;1.70;;
64609;SDS011;51019;46.090;6.350;2023-04-25T13:10:38;7.05;;;1.92;;
64609;SDS011;51019;46.090;6.350;2023-04-25T13:13:07;9.00;;;2.10;;
64609;SDS011;51019;46.090;6.350;2023-04-25T13:15:36;7.50;;;2.00;;
64609;SDS011;51019;46.090;6.350;2023-04-25T13:18:04;6.30;;;1.63;;
64609;SDS011;51019;46.090;6.350;2023-04-25T13:20:34;9.63;;;2.30;;
64609;SDS011;51019;46.090;6.350;2023-04-25T13:23:02;9.52;;;2.35;;
64609;SDS011;51019;46.090;6.350;2023-04-25T13:25:29;8.40;;;1.92;;
64609;SDS011;51019;46.090;6.350;2023-04-25T13:27:58;8.20;;;2.00;;
64609;SDS011;51019;46.090;6.350;2023-04-25T13:30:26;8.85;;;2.05;;
64609;SDS011;51019;46.090;6.350;2023-04-25T13:32:54;7.05;;;1.90;;
64609;SDS011;51019;46.090;6.350;2023-04-25T13:35:28;6.15;;;1.98;;
64609;SDS011;51019;46.090;6.350;2023-04-25T13:37:56;8.45;;;2.13;;
64609;SDS011;51019;46.090;6.350;2023-04-25T13:40:27;8.55;;;2.33;;
64609;SDS011;51019;46.090;6.350;2023-04-25T13:42:55;7.90;;;2.10;;
64609;SDS011;51019;46.090;6.350;2023-04-25T13:45:24;8.13;;;1.75;;
64609;SDS011;51019;46.090;6.350;2023-04-25T13:47:54;9.82;;;2.10;;
64609;SDS011;51019;46.090;6.350;2023-04-25T13:50:21;8.50;;;1.92;;
64609;SDS011;51019;46.090;6.350;2023-04-25T13:52:50;9.30;;;2.17;;
64609;SDS011;51019;46.090;6.350;2023-04-25T13:55:19;5.15;;;1.75;;
64609;SDS011;51019;46.090;6.350;2023-04-25T13:57:47;5.53;;;1.70;;
64609;SDS011;51019;46.090;6.350;2023-04-25T14:00:15;9.68;;;2.10;;
64609;SDS011;51019;46.090;6.350;2023-04-25T14:02:45;10.85;;;1.95;;
64609;SDS011;51019;46.090;6.350;2023-04-25T14:05:12;9.93;;;2.13;;
64609;SDS011;51019;46.090;6.350;2023-04-25T14:07:41;7.35;;;1.92;;
64609;SDS011;51019;46.090;6.350;2023-04-25T14:10:09;7.88;;;1.95;;
64609;SDS011;51019;46.090;6.350;2023-04-25T14:12:37;5.85;;;1.73;;
64609;SDS011;51019;46.090;6.350;2023-04-25T14:15:05;5.18;;;1.65;;
64609;SDS011;51019;46.090;6.350;2023-04-25T14:17:33;5.95;;;1.70;;
64609;SDS011;51019;46.090;6.350;2023-04-25T14:20:02;5.68;;;1.70;;
64609;SDS011;51019;46.090;6.350;2023-04-25T14:22:31;8.13;;;1.90;;
64609;SDS011;51019;46.090;6.350;2023-04-25T14:24:58;7.78;;;1.77;;
64609;SDS011;51019;46.090;6.350;2023-04-25T14:27:25;7.90;;;1.88;;
64609;SDS011;51019;46.090;6.350;2023-04-25T14:29:53;6.15;;;1.60;;
64609;SDS011;51019;46.090;6.350;2023-04-25T14:32:20;6.90;;;1.65;;
64609;SDS011;51019;46.090;6.350;2023-04-25T14:34:47;5.30;;;1.52;;
64609;SDS011;51019;46.090;6.350;2023-04-25T14:37:18;7.55;;;1.92;;
64609;SDS011;51019;46.090;6.350;2023-04-25T14:39:45;5.65;;;1.60;;
64609;SDS011;51019;46.090;6.350;2023-04-25T14:42:13;7.50;;;1.67;;
64609;SDS011;51019;46.090;6.350;2023-04-25T14:44:41;5.47;;;1.60;;
64609;SDS011;51019;46.090;6.350;2023-04-25T14:47:08;5.43;;;1.55;;
64609;SDS011;51019;46.090;6.350;2023-04-25T14:49:37;6.20;;;1.92;;
64609;SDS011;51019;46.090;6.350;2023-04-25T14:52:04;7.63;;;1.73;;